• Join FlightAware (Why Join?)
  • Login
  • US Flag 
11:34PM EDT


 

Airport Tracker/Info


-or-


 

Live Flight TrackerFlight Track Log ✈ JZA8293 ✈ 26-Apr-2013 ✈ CYWG - CYXE

Flight Track Log - Related Links

Times and Time Zones

All times are in EDT time to prevent confusion due to time zone crossing. See the JZA8293 flight status page for this flight to view local times or setup timezone preferences in your user account.

Time Position Orientation Groundspeed Altitude Reporting Facility
EDT Latitude Longitude Course Direction KTS MPH feet Rate Location/Type
01:41PM 49.8833 -97.2333 287° West 10 12 700  Level Winnipeg Center
01:43PM 49.9000 -97.2500 327° Northwest 160 184 1,500 900 Climbing Winnipeg Center
01:44PM 49.9333 -97.3000 316° Northwest 200 230 3,500 2,220 Climbing Winnipeg Center
01:45PM 49.9500 -97.4000 285° West 250 288 6,000 2,700 Climbing Winnipeg Center
01:46PM 49.9833 -97.5167 294° West 260 299 9,000 2,940 Climbing Winnipeg Center
01:47PM 50.0000 -97.6167 285° West 260 299 11,900 2,700 Climbing Winnipeg Center
01:48PM 50.0756 -98.0277 287° West  Level FlightAware Approximate
01:48PM 50.0167 -97.7500 281° West 270 311 14,500  Level Winnipeg Center
01:49PM 50.0500 -97.8500 297° West 280 322 16,400 1,860 Climbing Winnipeg Center
01:50PM 50.0667 -97.9833 281° West 290 334 18,300 1,920 Climbing Winnipeg Center
01:51PM 50.0833 -98.0833 285° West 290 334 20,300 1,860 Climbing Winnipeg Center
01:52PM 50.1000 -98.2167 281° West 280 322 22,100 1,440 Climbing Winnipeg Center
01:53PM 50.1333 -98.3167 298° West 300 345 23,200 1,200 Climbing Winnipeg Center
01:54PM 50.1500 -98.4500 281° West 300 345 24,500 1,320 Climbing Winnipeg Center
01:55PM 50.1833 -98.5833 291° West 310 357 25,900 1,200 Climbing Winnipeg Center
01:56PM 50.2167 -98.7167 291° West 310 357 26,900 1,020 Climbing Winnipeg Center
01:57PM 50.2333 -98.8500 281° West 320 368 28,000 960 Climbing Winnipeg Center
01:58PM 50.2667 -98.9833 291° West 320 368 28,900 840 Climbing Winnipeg Center
01:59PM 50.3000 -99.1167 291° West 320 368 29,700 720 Climbing Winnipeg Center
02:00PM 50.3167 -99.2500 281° West 330 380 30,400 600 Climbing Winnipeg Center
02:01PM 50.3333 -99.4000 280° West 330 380 31,000 540 Climbing Winnipeg Center
02:02PM 50.3667 -99.5333 291° West 330 380 31,500 420 Climbing Winnipeg Center
02:03PM 50.3833 -99.6667 281° West 340 391 31,900 480 Climbing Winnipeg Center
02:04PM 50.4167 -99.8000 291° West 340 391 32,500 600 Climbing Winnipeg Center
02:05PM 50.4667 -99.9333 301° West 330 380 33,100 540 Climbing Winnipeg Center
02:06PM 50.4833 -100.0667 281° West 330 380 33,600 420 Climbing Winnipeg Center
02:07PM 50.5333 -100.2000 301° West 330 380 34,000 180 Climbing Winnipeg Center
02:08PM 50.5667 -100.3333 292° West 340 391 34,000  Level Winnipeg Center
02:09PM 50.6167 -100.5000 295° West 350 403 34,000  Level Winnipeg Center
02:10PM 50.6500 -100.6333 292° West 360 414 34,000  Level Winnipeg Center
02:11PM 50.7000 -100.7667 301° West 360 414 34,000  Level Winnipeg Center
02:12PM 50.7333 -100.9333 288° West 370 426 34,000  Level Winnipeg Center
02:13PM 50.7833 -101.0667 301° West 370 426 34,000  Level Winnipeg Center
02:14PM 50.8167 -101.2333 288° West 370 426 34,000  Level Winnipeg Center
02:15PM 50.8667 -101.3667 301° West 380 437 34,000  Level Winnipeg Center
02:16PM 50.9167 -101.5333 296° West 380 437 34,000  Level Winnipeg Center
02:17PM 50.9500 -101.6667 292° West 380 437 34,000  Level Winnipeg Center
02:18PM 51.0000 -101.8333 296° West 380 437 34,000  Level Winnipeg Center
02:19PM 51.0500 -102.0000 296° West 380 437 34,000  Level Winnipeg Center
02:20PM 51.0833 -102.1333 292° West 370 426 34,000  Level Winnipeg Center
02:21PM 51.1167 -102.3000 288° West 380 437 34,000  Level Winnipeg Center
02:22PM 51.1500 -102.4667 288° West 380 437 34,000  Level Winnipeg Center
02:23PM 51.2000 -102.6000 301° West 380 437 34,000  Level Winnipeg Center
02:24PM 51.2333 -102.7667 288° West 380 437 34,000  Level Winnipeg Center
02:25PM 51.2833 -102.9167 298° West 380 437 34,000  Level Winnipeg Center
02:26PM 51.3333 -103.0833 296° West 380 437 34,000  Level Winnipeg Center
02:27PM 51.3667 -103.2500 288° West 380 437 34,000  Level Winnipeg Center
02:28PM 51.4000 -103.3833 292° West 380 437 34,000  Level Winnipeg Center
02:29PM 51.4333 -103.5167 292° West 380 437 34,000  Level Winnipeg Center
02:30PM 51.4833 -103.6833 296° West 380 437 34,000  Level Winnipeg Center
02:31PM 51.5167 -103.8500 288° West 380 437 34,000  Level Winnipeg Center
02:32PM 51.5500 -104.0333 286° West 380 437 34,000  Level Winnipeg Center
02:33PM 51.6000 -104.1667 301° West 380 437 34,000  Level Winnipeg Center
02:34PM 51.6333 -104.3333 288° West 380 437 34,000  Level Winnipeg Center
02:35PM 51.6667 -104.4833 290° West 380 437 34,000  Level Winnipeg Center
02:36PM 51.7167 -104.6500 296° West 380 437 34,000 -420 Level Winnipeg Center
02:37PM 51.7500 -104.8167 288° West 380 437 33,200 -2,040 Descending Winnipeg Center
02:38PM 51.7833 -104.9833 288° West 390 449 30,000 -3,120 Descending Winnipeg Center
02:39PM 51.8167 -105.1333 290° West 370 426 27,000 -3,000 Descending Winnipeg Center
02:40PM 51.8667 -105.2667 301° West 370 426 24,100 -2,820 Descending Winnipeg Center
02:41PM 51.8833 -105.4167 280° West 350 403 21,400 -2,700 Descending Winnipeg Center
02:42PM 51.9333 -105.5500 301° West 340 391 18,700 -2,700 Descending Winnipeg Center
02:43PM 51.9667 -105.7000 290° West 330 380 16,100 -2,700 Descending Winnipeg Center
02:44PM 51.9833 -105.8500 280° West 330 380 13,300 -2,400 Descending Winnipeg Center
02:45PM 52.0167 -105.9500 298° West 310 357 11,300 -2,040 Descending Winnipeg Center
02:46PM 52.0500 -106.1000 290° West 280 322 9,300 -1,740 Descending Winnipeg Center
02:47PM 52.0667 -106.1833 288° West 260 299 7,900 -1,500 Descending Winnipeg Center
02:48PM 52.0833 -106.3000 283° West 240 276 6,400 -1,260 Descending Winnipeg Center
02:49PM 52.1167 -106.3833 303° West 220 253 5,400 -960 Descending Winnipeg Center
02:50PM 52.1167 -106.4667 270° West 200 230 4,500 -900 Descending Winnipeg Center
02:51PM 52.1333 -106.5500 288° West 180 207 3,700 -840 Descending Winnipeg Center
02:52PM 52.1500 -106.6167 292° West 160 184 2,900 -840 Descending Winnipeg Center
02:53PM 52.1500 -106.6667 270° West 150 173 2,100 -840 Descending Winnipeg Center